CPA1226 EGLL-EBBR
Flight info
| Callsign | CPA1226 |
|---|---|
| Flight time | 0h 40m |
| Altitude | 23000 |
| Route | DET Q70 KOK |
| Aircraft | B77W/H-SDE1E2E3FGHIJ2J3J4J5M1RWXY/LB1D1 |
Departure
| Time | 2026-05-06 08:13 |
|---|---|
| Airport | London Heathrow Airport (EGLL) |
Arrival
| Time | 2026-05-06 08:53 |
|---|---|
| Airport | Brussels Airport (EBBR) |
| Time | Latitude | Longitude | Altitude | Speed | Heading |
|---|---|---|---|---|---|
| 2026-05-06 07:52 | 51.46962 | -0.46474 | 94 ft | 0 kts | 56° |
| 2026-05-06 08:02 | 51.46956 | -0.46487 | 92 ft | 4 kts | 56° |
| 2026-05-06 08:02 | 51.46936 | -0.46534 | 93 ft | 3 kts | 56° |
| 2026-05-06 08:02 | 51.46928 | -0.46554 | 94 ft | 4 kts | 72° |
| 2026-05-06 08:03 | 51.46930 | -0.46589 | 91 ft | 4 kts | 132° |
| 2026-05-06 08:03 | 51.46950 | -0.46616 | 91 ft | 3 kts | 146° |
| 2026-05-06 08:03 | 51.46957 | -0.46624 | 94 ft | 0 kts | 146° |
| 2026-05-06 08:08 | 51.46926 | -0.46590 | 91 ft | 10 kts | 146° |
| 2026-05-06 08:08 | 51.46864 | -0.46522 | 95 ft | 11 kts | 145° |
| 2026-05-06 08:08 | 51.46797 | -0.46447 | 95 ft | 12 kts | 146° |
| 2026-05-06 08:08 | 51.46713 | -0.46419 | 94 ft | 13 kts | 178° |
| 2026-05-06 08:09 | 51.46649 | -0.46491 | 95 ft | 13 kts | 266° |
| 2026-05-06 08:09 | 51.46657 | -0.46640 | 94 ft | 13 kts | 270° |
| 2026-05-06 08:09 | 51.46657 | -0.46754 | 94 ft | 9 kts | 269° |
| 2026-05-06 08:09 | 51.46657 | -0.46860 | 94 ft | 10 kts | 269° |
| 2026-05-06 08:10 | 51.46656 | -0.46977 | 94 ft | 11 kts | 270° |
| 2026-05-06 08:10 | 51.46656 | -0.47100 | 94 ft | 12 kts | 270° |
| 2026-05-06 08:10 | 51.46656 | -0.47234 | 94 ft | 12 kts | 270° |
| 2026-05-06 08:10 | 51.46656 | -0.47376 | 94 ft | 13 kts | 270° |
| 2026-05-06 08:11 | 51.46655 | -0.47526 | 94 ft | 14 kts | 269° |
| 2026-05-06 08:11 | 51.46654 | -0.47689 | 91 ft | 15 kts | 270° |
| 2026-05-06 08:11 | 51.46654 | -0.47882 | 92 ft | 19 kts | 270° |
| 2026-05-06 08:11 | 51.46652 | -0.48144 | 91 ft | 28 kts | 269° |
| 2026-05-06 08:12 | 51.46642 | -0.48400 | 95 ft | 20 kts | 248° |
| 2026-05-06 08:12 | 51.46527 | -0.48474 | 94 ft | 19 kts | 165° |
| 2026-05-06 08:12 | 51.46481 | -0.48344 | 94 ft | 0 kts | 90° |
| 2026-05-06 08:12 | 51.46483 | -0.48059 | 95 ft | 69 kts | 89° |
| 2026-05-06 08:13 | 51.46494 | -0.46742 | 95 ft | 155 kts | 90° |
| 2026-05-06 08:13 | 51.46453 | -0.44849 | 410 ft | 188 kts | 86° |
| 2026-05-06 08:13 | 51.46477 | -0.42930 | 1789 ft | 161 kts | 83° |
| 2026-05-06 08:13 | 51.46362 | -0.41134 | 2608 ft | 175 kts | 110° |
| 2026-05-06 08:14 | 51.45411 | -0.39608 | 2892 ft | 213 kts | 141° |
| 2026-05-06 08:14 | 51.44395 | -0.37794 | 3210 ft | 227 kts | 105° |
| 2026-05-06 08:14 | 51.44043 | -0.35230 | 3609 ft | 248 kts | 97° |
| 2026-05-06 08:14 | 51.43589 | -0.32469 | 4402 ft | 263 kts | 103° |
| 2026-05-06 08:15 | 51.43013 | -0.29618 | 5290 ft | 273 kts | 105° |
| 2026-05-06 08:15 | 51.42456 | -0.26680 | 5907 ft | 278 kts | 100° |
| 2026-05-06 08:15 | 51.42057 | -0.23608 | 6004 ft | 285 kts | 98° |
| 2026-05-06 08:15 | 51.41670 | -0.20506 | 5992 ft | 282 kts | 98° |
| 2026-05-06 08:16 | 51.41269 | -0.17458 | 5996 ft | 278 kts | 99° |
| 2026-05-06 08:16 | 51.40863 | -0.14430 | 6001 ft | 278 kts | 99° |
| 2026-05-06 08:16 | 51.40450 | -0.11402 | 6002 ft | 279 kts | 99° |
| 2026-05-06 08:16 | 51.40030 | -0.08355 | 5997 ft | 280 kts | 99° |
| 2026-05-06 08:17 | 51.39610 | -0.05313 | 6004 ft | 280 kts | 99° |
| 2026-05-06 08:17 | 51.39190 | -0.02267 | 6009 ft | 281 kts | 99° |
| 2026-05-06 08:17 | 51.38765 | 0.00793 | 6014 ft | 283 kts | 99° |
| 2026-05-06 08:17 | 51.38336 | 0.03875 | 6004 ft | 284 kts | 99° |
| 2026-05-06 08:18 | 51.37905 | 0.06954 | 6005 ft | 283 kts | 99° |
| 2026-05-06 08:18 | 51.37475 | 0.10028 | 6002 ft | 283 kts | 98° |
| 2026-05-06 08:18 | 51.37045 | 0.13094 | 6004 ft | 283 kts | 99° |
| 2026-05-06 08:18 | 51.36613 | 0.16168 | 6000 ft | 283 kts | 99° |
| 2026-05-06 08:19 | 51.36182 | 0.19233 | 5988 ft | 282 kts | 99° |
| 2026-05-06 08:19 | 51.35751 | 0.22287 | 6023 ft | 280 kts | 99° |
| 2026-05-06 08:19 | 51.35322 | 0.25312 | 6306 ft | 278 kts | 99° |
| 2026-05-06 08:19 | 51.34893 | 0.28341 | 6781 ft | 281 kts | 99° |
| 2026-05-06 08:20 | 51.34457 | 0.31422 | 7274 ft | 286 kts | 99° |
| 2026-05-06 08:20 | 51.34016 | 0.34525 | 7818 ft | 286 kts | 100° |
| 2026-05-06 08:20 | 51.33580 | 0.37590 | 8376 ft | 287 kts | 100° |
| 2026-05-06 08:20 | 51.33129 | 0.40748 | 8947 ft | 288 kts | 101° |
| 2026-05-06 08:21 | 51.32692 | 0.43803 | 9608 ft | 289 kts | 100° |
| 2026-05-06 08:21 | 51.32237 | 0.46976 | 10189 ft | 291 kts | 100° |
| 2026-05-06 08:21 | 51.31781 | 0.50150 | 10758 ft | 297 kts | 102° |
| 2026-05-06 08:21 | 51.31313 | 0.53394 | 11369 ft | 302 kts | 102° |
| 2026-05-06 08:22 | 51.30833 | 0.56713 | 11984 ft | 303 kts | 102° |
| 2026-05-06 08:22 | 51.30369 | 0.59983 | 12606 ft | 308 kts | 99° |
| 2026-05-06 08:22 | 51.30114 | 0.63389 | 13216 ft | 310 kts | 93° |
| 2026-05-06 08:22 | 51.30010 | 0.66877 | 13867 ft | 311 kts | 91° |
| 2026-05-06 08:23 | 51.29930 | 0.70334 | 14435 ft | 313 kts | 91° |
| 2026-05-06 08:23 | 51.29841 | 0.73786 | 14977 ft | 321 kts | 91° |
| 2026-05-06 08:23 | 51.29732 | 0.77513 | 15282 ft | 352 kts | 92° |
| 2026-05-06 08:23 | 51.29598 | 0.81593 | 15489 ft | 385 kts | 92° |
| 2026-05-06 08:24 | 51.29441 | 0.85999 | 16003 ft | 405 kts | 93° |
| 2026-05-06 08:24 | 51.29271 | 0.90527 | 16991 ft | 412 kts | 92° |
| 2026-05-06 08:24 | 51.29095 | 0.95131 | 18001 ft | 420 kts | 92° |
| 2026-05-06 08:24 | 51.28915 | 0.99813 | 18965 ft | 424 kts | 92° |
| 2026-05-06 08:25 | 51.28733 | 1.04492 | 20020 ft | 425 kts | 92° |
| 2026-05-06 08:25 | 51.28544 | 1.09266 | 20916 ft | 431 kts | 93° |
| 2026-05-06 08:25 | 51.28349 | 1.14091 | 21729 ft | 439 kts | 94° |
| 2026-05-06 08:25 | 51.28149 | 1.18978 | 22607 ft | 443 kts | 94° |
| 2026-05-06 08:26 | 51.27945 | 1.23928 | 22959 ft | 447 kts | 94° |
| 2026-05-06 08:26 | 51.27741 | 1.28858 | 22946 ft | 443 kts | 94° |
| 2026-05-06 08:26 | 51.27537 | 1.33740 | 22940 ft | 438 kts | 94° |
| 2026-05-06 08:26 | 51.27332 | 1.38599 | 22948 ft | 439 kts | 94° |
| 2026-05-06 08:27 | 51.27126 | 1.43459 | 22958 ft | 439 kts | 94° |
| 2026-05-06 08:27 | 51.26916 | 1.48330 | 22960 ft | 440 kts | 94° |
| 2026-05-06 08:27 | 51.26705 | 1.53207 | 22947 ft | 441 kts | 94° |
| 2026-05-06 08:27 | 51.26493 | 1.58082 | 22953 ft | 441 kts | 94° |
| 2026-05-06 08:28 | 51.26282 | 1.62912 | 22943 ft | 441 kts | 94° |
| 2026-05-06 08:28 | 51.26064 | 1.67863 | 22944 ft | 441 kts | 94° |
| 2026-05-06 08:28 | 51.25850 | 1.72682 | 22935 ft | 441 kts | 94° |
| 2026-05-06 08:28 | 51.25632 | 1.77557 | 22931 ft | 441 kts | 94° |
| 2026-05-06 08:29 | 51.25411 | 1.82435 | 22937 ft | 440 kts | 94° |
| 2026-05-06 08:29 | 51.25189 | 1.87296 | 22937 ft | 440 kts | 94° |
| 2026-05-06 08:29 | 51.24965 | 1.92170 | 22925 ft | 440 kts | 94° |
| 2026-05-06 08:29 | 51.24740 | 1.97023 | 22931 ft | 439 kts | 94° |
| 2026-05-06 08:30 | 51.24512 | 2.01887 | 22922 ft | 439 kts | 94° |
| 2026-05-06 08:30 | 51.24290 | 2.06738 | 22923 ft | 439 kts | 94° |
| 2026-05-06 08:30 | 51.24069 | 2.11598 | 22923 ft | 438 kts | 94° |
| 2026-05-06 08:30 | 51.23848 | 2.16449 | 22922 ft | 438 kts | 94° |
| 2026-05-06 08:31 | 51.23624 | 2.21298 | 22926 ft | 438 kts | 94° |
| 2026-05-06 08:31 | 51.23399 | 2.26150 | 22926 ft | 438 kts | 94° |
| 2026-05-06 08:31 | 51.23171 | 2.30987 | 22915 ft | 439 kts | 94° |
| 2026-05-06 08:31 | 51.22875 | 2.35815 | 22914 ft | 436 kts | 100° |
| 2026-05-06 08:32 | 51.22028 | 2.40450 | 22913 ft | 436 kts | 113° |
| 2026-05-06 08:32 | 51.20610 | 2.44709 | 22923 ft | 436 kts | 124° |
| 2026-05-06 08:32 | 51.18706 | 2.48487 | 22920 ft | 437 kts | 133° |
| 2026-05-06 08:32 | 51.16666 | 2.52080 | 22917 ft | 438 kts | 133° |
| 2026-05-06 08:33 | 51.14643 | 2.55714 | 22915 ft | 439 kts | 131° |
| 2026-05-06 08:33 | 51.12639 | 2.59391 | 22913 ft | 439 kts | 131° |
| 2026-05-06 08:33 | 51.10670 | 2.63091 | 22901 ft | 435 kts | 128° |
| 2026-05-06 08:33 | 51.09199 | 2.67285 | 22891 ft | 437 kts | 109° |
| 2026-05-06 08:34 | 51.08568 | 2.71984 | 22913 ft | 436 kts | 99° |
| 2026-05-06 08:34 | 51.07523 | 2.81575 | 22911 ft | 440 kts | 101° |
| 2026-05-06 08:34 | 51.06956 | 2.86364 | 22910 ft | 440 kts | 101° |
| 2026-05-06 08:35 | 51.06379 | 2.91131 | 22912 ft | 438 kts | 101° |
| 2026-05-06 08:35 | 51.05799 | 2.95884 | 22906 ft | 437 kts | 101° |
| 2026-05-06 08:35 | 51.05217 | 3.00628 | 22905 ft | 437 kts | 101° |
| 2026-05-06 08:35 | 51.04636 | 3.05351 | 22903 ft | 436 kts | 101° |
| 2026-05-06 08:36 | 51.04053 | 3.10079 | 22903 ft | 435 kts | 101° |
| 2026-05-06 08:36 | 51.03469 | 3.14802 | 22696 ft | 438 kts | 101° |
| 2026-05-06 08:36 | 51.02876 | 3.19580 | 22014 ft | 443 kts | 101° |
| 2026-05-06 08:36 | 51.02281 | 3.24367 | 21381 ft | 438 kts | 101° |
| 2026-05-06 08:37 | 51.01693 | 3.29077 | 20738 ft | 433 kts | 101° |
| 2026-05-06 08:37 | 51.01110 | 3.33736 | 20111 ft | 428 kts | 101° |
| 2026-05-06 08:37 | 51.00530 | 3.38348 | 19495 ft | 424 kts | 101° |
| 2026-05-06 08:37 | 50.99954 | 3.42922 | 18890 ft | 421 kts | 102° |
| 2026-05-06 08:38 | 50.99381 | 3.47452 | 18273 ft | 418 kts | 102° |
| 2026-05-06 08:38 | 50.98810 | 3.51948 | 17595 ft | 415 kts | 101° |
| 2026-05-06 08:38 | 50.98238 | 3.56430 | 16940 ft | 412 kts | 101° |
| 2026-05-06 08:38 | 50.97680 | 3.60799 | 16329 ft | 408 kts | 101° |
| 2026-05-06 08:39 | 50.97118 | 3.65180 | 15732 ft | 403 kts | 100° |
| 2026-05-06 08:39 | 50.96561 | 3.69513 | 15134 ft | 399 kts | 100° |
| 2026-05-06 08:39 | 50.96007 | 3.73810 | 14547 ft | 395 kts | 99° |
| 2026-05-06 08:39 | 50.95457 | 3.78063 | 13973 ft | 392 kts | 99° |
| 2026-05-06 08:40 | 50.94912 | 3.82269 | 13351 ft | 388 kts | 99° |
| 2026-05-06 08:40 | 50.94373 | 3.86431 | 12737 ft | 384 kts | 99° |
| 2026-05-06 08:40 | 50.93834 | 3.90566 | 12138 ft | 380 kts | 100° |
| 2026-05-06 08:40 | 50.93299 | 3.94654 | 11566 ft | 377 kts | 100° |
| 2026-05-06 08:41 | 50.92917 | 3.98676 | 10993 ft | 363 kts | 88° |
| 2026-05-06 08:41 | 50.93369 | 4.02524 | 10704 ft | 348 kts | 69° |
| 2026-05-06 08:41 | 50.94214 | 4.06046 | 10523 ft | 335 kts | 68° |
| 2026-05-06 08:41 | 50.95009 | 4.09444 | 10386 ft | 322 kts | 69° |
| 2026-05-06 08:42 | 50.95766 | 4.12719 | 10265 ft | 311 kts | 68° |
| 2026-05-06 08:42 | 50.96491 | 4.15872 | 10120 ft | 301 kts | 69° |
| 2026-05-06 08:42 | 50.97198 | 4.18956 | 10009 ft | 291 kts | 69° |
| 2026-05-06 08:42 | 50.97879 | 4.21930 | 9892 ft | 282 kts | 68° |
| 2026-05-06 08:43 | 50.98540 | 4.24828 | 9636 ft | 281 kts | 68° |
| 2026-05-06 08:43 | 50.99206 | 4.27746 | 9311 ft | 281 kts | 68° |
| 2026-05-06 08:43 | 50.99869 | 4.30663 | 8973 ft | 281 kts | 69° |
| 2026-05-06 08:43 | 51.00528 | 4.33570 | 8650 ft | 278 kts | 68° |
| 2026-05-06 08:44 | 51.01178 | 4.36441 | 8339 ft | 276 kts | 68° |
| 2026-05-06 08:44 | 51.01824 | 4.39295 | 8036 ft | 273 kts | 69° |
| 2026-05-06 08:44 | 51.02465 | 4.42135 | 7744 ft | 273 kts | 68° |
| 2026-05-06 08:44 | 51.03108 | 4.44981 | 7420 ft | 275 kts | 68° |
| 2026-05-06 08:45 | 51.03753 | 4.47842 | 7126 ft | 276 kts | 69° |
| 2026-05-06 08:45 | 51.04393 | 4.50692 | 6876 ft | 273 kts | 68° |
| 2026-05-06 08:45 | 51.05027 | 4.53515 | 6565 ft | 271 kts | 69° |
| 2026-05-06 08:45 | 51.05645 | 4.56272 | 6293 ft | 255 kts | 69° |
| 2026-05-06 08:46 | 51.06242 | 4.58936 | 6007 ft | 254 kts | 69° |
| 2026-05-06 08:46 | 51.06827 | 4.61552 | 5633 ft | 249 kts | 68° |
| 2026-05-06 08:46 | 51.07212 | 4.63279 | 5417 ft | 243 kts | 69° |
| 2026-05-06 08:46 | 51.07773 | 4.65786 | 5127 ft | 244 kts | 69° |
| 2026-05-06 08:47 | 51.08128 | 4.68405 | 4899 ft | 245 kts | 91° |
| 2026-05-06 08:47 | 51.07618 | 4.70959 | 4893 ft | 243 kts | 120° |
| 2026-05-06 08:47 | 51.06426 | 4.72884 | 4557 ft | 250 kts | 146° |
| 2026-05-06 08:47 | 51.04843 | 4.74048 | 4157 ft | 250 kts | 156° |
| 2026-05-06 08:48 | 51.03244 | 4.74950 | 3937 ft | 238 kts | 157° |
| 2026-05-06 08:48 | 51.01713 | 4.75801 | 3667 ft | 228 kts | 158° |
| 2026-05-06 08:48 | 51.00229 | 4.76621 | 3444 ft | 224 kts | 157° |
| 2026-05-06 08:48 | 50.98780 | 4.77441 | 3201 ft | 220 kts | 158° |
| 2026-05-06 08:49 | 50.97297 | 4.77866 | 2818 ft | 220 kts | 186° |
| 2026-05-06 08:49 | 50.95899 | 4.76910 | 2394 ft | 222 kts | 225° |
| 2026-05-06 08:49 | 50.95103 | 4.74910 | 2105 ft | 210 kts | 254° |
| 2026-05-06 08:49 | 50.94619 | 4.72783 | 2048 ft | 205 kts | 253° |
| 2026-05-06 08:50 | 50.94112 | 4.70642 | 2014 ft | 210 kts | 253° |
| 2026-05-06 08:50 | 50.93606 | 4.68455 | 2004 ft | 212 kts | 253° |
| 2026-05-06 08:50 | 50.93118 | 4.66335 | 2026 ft | 195 kts | 253° |
| 2026-05-06 08:50 | 50.92670 | 4.64389 | 1804 ft | 182 kts | 254° |
| 2026-05-06 08:51 | 50.92257 | 4.62595 | 1560 ft | 162 kts | 255° |
| 2026-05-06 08:51 | 50.91891 | 4.61003 | 1330 ft | 148 kts | 256° |
| 2026-05-06 08:51 | 50.91544 | 4.59488 | 1154 ft | 148 kts | 255° |
| 2026-05-06 08:51 | 50.91178 | 4.57914 | 951 ft | 151 kts | 254° |
| 2026-05-06 08:52 | 50.90786 | 4.56378 | 677 ft | 146 kts | 252° |
| 2026-05-06 08:52 | 50.90470 | 4.54907 | 475 ft | 140 kts | 253° |
| 2026-05-06 08:52 | 50.90125 | 4.53451 | 358 ft | 143 kts | 253° |
| 2026-05-06 08:52 | 50.89802 | 4.51946 | 210 ft | 142 kts | 253° |
| 2026-05-06 08:53 | 50.89506 | 4.50581 | 180 ft | 119 kts | 251° |
| 2026-05-06 08:53 | 50.89256 | 4.49531 | 181 ft | 86 kts | 249° |
| 2026-05-06 08:53 | 50.89164 | 4.49041 | 181 ft | 10 kts | 301° |
| 2026-05-06 08:53 | 50.89183 | 4.49019 | 181 ft | 0 kts | 335° |
| 2026-05-06 08:54 | 50.89197 | 4.49017 | 180 ft | 3 kts | 359° |
| 2026-05-06 08:54 | 50.89234 | 4.49039 | 178 ft | 9 kts | 26° |
| 2026-05-06 08:54 | 50.89311 | 4.49073 | 172 ft | 14 kts | 0° |
| 2026-05-06 08:54 | 50.89414 | 4.49019 | 166 ft | 18 kts | 355° |
| 2026-05-06 08:55 | 50.89544 | 4.49057 | 161 ft | 20 kts | 14° |
| 2026-05-06 08:55 | 50.89668 | 4.49145 | 156 ft | 19 kts | 25° |
| 2026-05-06 08:55 | 50.89809 | 4.49212 | 148 ft | 23 kts | 13° |
| 2026-05-06 08:55 | 50.89959 | 4.49273 | 139 ft | 22 kts | 14° |
| 2026-05-06 08:56 | 50.90078 | 4.49321 | 133 ft | 14 kts | 14° |
| 2026-05-06 08:56 | 50.90178 | 4.49361 | 127 ft | 16 kts | 14° |
| 2026-05-06 08:56 | 50.90285 | 4.49401 | 126 ft | 14 kts | 10° |
| 2026-05-06 08:56 | 50.90348 | 4.49350 | 127 ft | 7 kts | 284° |
| 2026-05-06 08:57 | 50.90326 | 4.49274 | 121 ft | 8 kts | 232° |
| 2026-05-06 08:57 | 50.90297 | 4.49197 | 126 ft | 8 kts | 241° |
| 2026-05-06 08:57 | 50.90268 | 4.49110 | 127 ft | 9 kts | 242° |
| 2026-05-06 08:57 | 50.90238 | 4.49017 | 128 ft | 4 kts | 244° |
| 2026-05-06 08:58 | 50.90229 | 4.48988 | 129 ft | 4 kts | 244° |
| 2026-05-06 08:58 | 50.90223 | 4.48968 | 130 ft | 1 kts | 244° |
| 2026-05-06 08:58 | 50.90219 | 4.48954 | 123 ft | 2 kts | 244° |
| 2026-05-06 08:58 | 50.90207 | 4.48931 | 126 ft | 3 kts | 222° |
| 2026-05-06 08:59 | 50.90183 | 4.48923 | 125 ft | 4 kts | 171° |
| 2026-05-06 08:59 | 50.90158 | 4.48939 | 129 ft | 4 kts | 156° |
| 2026-05-06 08:59 | 50.90144 | 4.48948 | 129 ft | 0 kts | 156° |